sensor_id;sensor_type;location;lat;lon;timestamp;pressure;altitude;pressure_sealevel;temperature;humidity
11049;BME280;5577;42.706;23.160;2023-02-26T00:02:15;92900.44;;;12.54;72.14
11049;BME280;5577;42.706;23.160;2023-02-26T00:04:58;92853.94;;;12.22;71.09
11049;BME280;5577;42.706;23.160;2023-02-26T00:07:42;92912.44;;;12.73;71.62
11049;BME280;5577;42.706;23.160;2023-02-26T00:10:27;92920.41;;;12.76;71.89
11049;BME280;5577;42.706;23.160;2023-02-26T00:13:11;92927.25;;;12.70;72.68
11049;BME280;5577;42.706;23.160;2023-02-26T00:15:59;92922.00;;;12.67;73.57
11049;BME280;5577;42.706;23.160;2023-02-26T00:18:43;92911.75;;;12.62;74.27
11049;BME280;5577;42.706;23.160;2023-02-26T00:21:29;92907.97;;;12.59;75.17
11049;BME280;5577;42.706;23.160;2023-02-26T00:24:13;92906.47;;;12.58;75.32
11049;BME280;5577;42.706;23.160;2023-02-26T00:26:57;92902.66;;;12.59;73.36
11049;BME280;5577;42.706;23.160;2023-02-26T00:29:41;92891.31;;;12.55;75.56
11049;BME280;5577;42.706;23.160;2023-02-26T00:32:26;92887.09;;;12.65;74.38
11049;BME280;5577;42.706;23.160;2023-02-26T00:35:13;92876.94;;;12.53;74.04
11049;BME280;5577;42.706;23.160;2023-02-26T00:40:48;92872.66;;;12.66;72.65
11049;BME280;5577;42.706;23.160;2023-02-26T00:43:32;92848.50;;;12.46;72.96
11049;BME280;5577;42.706;23.160;2023-02-26T06:36:25;92754.22;;;13.93;46.52
11049;BME280;5577;42.706;23.160;2023-02-26T06:39:09;92722.59;;;13.99;45.64
11049;BME280;5577;42.706;23.160;2023-02-26T06:41:55;92727.13;;;14.02;45.28
11049;BME280;5577;42.706;23.160;2023-02-26T06:44:39;92741.84;;;14.10;45.41
11049;BME280;5577;42.706;23.160;2023-02-26T06:47:23;92754.00;;;14.11;45.42
11049;BME280;5577;42.706;23.160;2023-02-26T06:50:08;92732.63;;;14.18;44.92
11049;BME280;5577;42.706;23.160;2023-02-26T06:52:53;92755.34;;;14.26;44.73
11049;BME280;5577;42.706;23.160;2023-02-26T06:55:42;92743.50;;;14.30;44.33
11049;BME280;5577;42.706;23.160;2023-02-26T06:58:26;92708.44;;;14.35;43.63
11049;BME280;5577;42.706;23.160;2023-02-26T07:01:10;92732.69;;;14.41;43.39
11049;BME280;5577;42.706;23.160;2023-02-26T07:03:54;92720.16;;;14.42;42.94
11049;BME280;5577;42.706;23.160;2023-02-26T07:06:38;92717.31;;;14.25;43.01
11049;BME280;5577;42.706;23.160;2023-02-26T07:09:22;92742.06;;;14.49;42.77
11049;BME280;5577;42.706;23.160;2023-02-26T07:12:06;92758.97;;;14.39;42.82
11049;BME280;5577;42.706;23.160;2023-02-26T07:14:50;92756.13;;;14.53;42.96
11049;BME280;5577;42.706;23.160;2023-02-26T07:17:34;92741.03;;;14.43;43.44
11049;BME280;5577;42.706;23.160;2023-02-26T07:20:18;92771.38;;;14.76;43.43
11049;BME280;5577;42.706;23.160;2023-02-26T07:23:03;92754.66;;;14.72;42.88
11049;BME280;5577;42.706;23.160;2023-02-26T07:25:48;92764.06;;;14.80;42.80
11049;BME280;5577;42.706;23.160;2023-02-26T07:28:32;92768.59;;;14.83;43.77
11049;BME280;5577;42.706;23.160;2023-02-26T07:31:16;92762.91;;;14.81;43.58
11049;BME280;5577;42.706;23.160;2023-02-26T07:34:00;92746.69;;;14.72;43.83
11049;BME280;5577;42.706;23.160;2023-02-26T07:36:44;92787.28;;;14.79;43.86
11049;BME280;5577;42.706;23.160;2023-02-26T07:39:28;92761.53;;;14.73;44.16
11049;BME280;5577;42.706;23.160;2023-02-26T07:42:12;92739.97;;;14.64;44.27
11049;BME280;5577;42.706;23.160;2023-02-26T07:44:56;92761.13;;;14.97;43.86
11049;BME280;5577;42.706;23.160;2023-02-26T07:47:41;92762.84;;;14.84;43.67
11049;BME280;5577;42.706;23.160;2023-02-26T07:50:25;92777.47;;;14.99;43.97
11049;BME280;5577;42.706;23.160;2023-02-26T07:53:09;92772.19;;;14.96;43.84
11049;BME280;5577;42.706;23.160;2023-02-26T07:55:53;92751.34;;;14.91;43.00
11049;BME280;5577;42.706;23.160;2023-02-26T07:58:37;92779.31;;;15.02;43.03
11049;BME280;5577;42.706;23.160;2023-02-26T08:01:21;92767.03;;;14.85;43.14
11049;BME280;5577;42.706;23.160;2023-02-26T08:04:05;92782.31;;;15.04;43.14
11049;BME280;5577;42.706;23.160;2023-02-26T08:06:49;92777.16;;;15.17;42.45
11049;BME280;5577;42.706;23.160;2023-02-26T08:09:33;92770.91;;;15.27;42.70
11049;BME280;5577;42.706;23.160;2023-02-26T08:12:17;92753.28;;;15.33;41.98
11049;BME280;5577;42.706;23.160;2023-02-26T08:15:01;92758.91;;;15.15;41.66
11049;BME280;5577;42.706;23.160;2023-02-26T08:17:45;92782.16;;;15.38;41.88
11049;BME280;5577;42.706;23.160;2023-02-26T08:20:30;92779.78;;;15.43;41.37
11049;BME280;5577;42.706;23.160;2023-02-26T08:23:13;92756.06;;;15.49;41.40
11049;BME280;5577;42.706;23.160;2023-02-26T08:26:02;92786.09;;;15.53;41.00
11049;BME280;5577;42.706;23.160;2023-02-26T08:28:46;92779.47;;;15.61;41.10
11049;BME280;5577;42.706;23.160;2023-02-26T08:31:31;92772.03;;;15.72;40.42
11049;BME280;5577;42.706;23.160;2023-02-26T08:34:17;92763.00;;;15.66;40.13
11049;BME280;5577;42.706;23.160;2023-02-26T08:37:01;92781.63;;;15.89;40.05
11049;BME280;5577;42.706;23.160;2023-02-26T08:39:45;92772.56;;;16.02;39.70
11049;BME280;5577;42.706;23.160;2023-02-26T08:42:29;92752.81;;;16.00;39.60
11049;BME280;5577;42.706;23.160;2023-02-26T08:45:13;92754.38;;;15.97;39.69
11049;BME280;5577;42.706;23.160;2023-02-26T08:47:58;92778.13;;;16.11;39.99
11049;BME280;5577;42.706;23.160;2023-02-26T08:50:42;92780.81;;;16.27;39.65
11049;BME280;5577;42.706;23.160;2023-02-26T08:53:26;92784.53;;;16.33;39.16
11049;BME280;5577;42.706;23.160;2023-02-26T08:56:10;92821.50;;;16.54;39.03
11049;BME280;5577;42.706;23.160;2023-02-26T08:58:54;92775.84;;;16.29;39.09
11049;BME280;5577;42.706;23.160;2023-02-26T09:01:38;92802.41;;;16.36;39.01
11049;BME280;5577;42.706;23.160;2023-02-26T09:04:22;92771.19;;;16.14;39.01
11049;BME280;5577;42.706;23.160;2023-02-26T09:07:06;92802.28;;;16.43;38.52
11049;BME280;5577;42.706;23.160;2023-02-26T09:09:50;92798.69;;;16.85;38.15
11049;BME280;5577;42.706;23.160;2023-02-26T09:12:33;92790.16;;;16.90;38.00
11049;BME280;5577;42.706;23.160;2023-02-26T09:15:19;92813.00;;;17.43;37.60
11049;BME280;5577;42.706;23.160;2023-02-26T09:18:04;92823.69;;;17.43;36.58
11049;BME280;5577;42.706;23.160;2023-02-26T09:20:48;92794.75;;;17.54;36.59
11049;BME280;5577;42.706;23.160;2023-02-26T09:23:32;92767.31;;;18.07;35.56
11049;BME280;5577;42.706;23.160;2023-02-26T09:26:16;92806.19;;;18.40;35.57
11049;BME280;5577;42.706;23.160;2023-02-26T09:29:00;92787.25;;;18.60;34.63
11049;BME280;5577;42.706;23.160;2023-02-26T09:31:44;92764.44;;;18.93;34.54
11049;BME280;5577;42.706;23.160;2023-02-26T09:34:28;92783.94;;;19.18;32.92
11049;BME280;5577;42.706;23.160;2023-02-26T09:37:12;92802.06;;;19.14;32.85
11049;BME280;5577;42.706;23.160;2023-02-26T09:39:56;92776.91;;;18.33;33.45
11049;BME280;5577;42.706;23.160;2023-02-26T09:45:41;92808.47;;;18.54;33.90
11049;BME280;5577;42.706;23.160;2023-02-26T09:48:28;92838.50;;;18.21;34.23
11049;BME280;5577;42.706;23.160;2023-02-26T09:51:19;92815.59;;;18.32;34.37
11049;BME280;5577;42.706;23.160;2023-02-26T09:54:18;92857.34;;;18.46;34.36
11049;BME280;5577;42.706;23.160;2023-02-26T09:57:06;92802.63;;;18.72;33.73
11049;BME280;5577;42.706;23.160;2023-02-26T09:59:54;92812.91;;;18.86;34.42
11049;BME280;5577;42.706;23.160;2023-02-26T10:11:50;92827.81;;;18.99;33.79
11049;BME280;5577;42.706;23.160;2023-02-26T10:14:51;92830.59;;;19.46;33.70
11049;BME280;5577;42.706;23.160;2023-02-26T10:20:30;92846.44;;;19.78;33.41
11049;BME280;5577;42.706;23.160;2023-02-26T10:26:34;92820.09;;;18.89;34.01
11049;BME280;5577;42.706;23.160;2023-02-26T10:29:34;92828.00;;;19.55;33.55
11049;BME280;5577;42.706;23.160;2023-02-26T10:32:25;92821.06;;;19.45;33.93
11049;BME280;5577;42.706;23.160;2023-02-26T10:35:13;92826.53;;;19.04;34.44
11049;BME280;5577;42.706;23.160;2023-02-26T10:38:07;92780.81;;;19.07;34.79
11049;BME280;5577;42.706;23.160;2023-02-26T10:41:01;92778.69;;;19.27;34.64
11049;BME280;5577;42.706;23.160;2023-02-26T10:47:11;92787.69;;;19.21;34.46
11049;BME280;5577;42.706;23.160;2023-02-26T10:50:05;92787.81;;;18.67;35.08
11049;BME280;5577;42.706;23.160;2023-02-26T10:52:50;92811.91;;;18.42;35.98
11049;BME280;5577;42.706;23.160;2023-02-26T10:55:41;92755.38;;;17.39;37.48
11049;BME280;5577;42.706;23.160;2023-02-26T10:58:27;92761.22;;;17.50;38.18
11049;BME280;5577;42.706;23.160;2023-02-26T11:01:20;92755.97;;;17.46;38.49
11049;BME280;5577;42.706;23.160;2023-02-26T11:04:20;92762.50;;;17.13;38.81
11049;BME280;5577;42.706;23.160;2023-02-26T11:07:06;92765.84;;;17.33;38.88
11049;BME280;5577;42.706;23.160;2023-02-26T11:09:52;92746.03;;;17.31;38.73
11049;BME280;5577;42.706;23.160;2023-02-26T11:12:37;92775.09;;;17.12;39.02
11049;BME280;5577;42.706;23.160;2023-02-26T11:15:25;92761.72;;;17.29;38.99
11049;BME280;5577;42.706;23.160;2023-02-26T11:18:16;92718.34;;;17.21;38.97
11049;BME280;5577;42.706;23.160;2023-02-26T11:21:03;92766.09;;;17.06;39.64
11049;BME280;5577;42.706;23.160;2023-02-26T11:23:49;92738.97;;;16.76;40.25
11049;BME280;5577;42.706;23.160;2023-02-26T11:26:38;92768.94;;;16.67;40.87
11049;BME280;5577;42.706;23.160;2023-02-26T11:29:25;92753.13;;;16.57;41.22
11049;BME280;5577;42.706;23.160;2023-02-26T11:32:17;92734.69;;;16.46;41.59
11049;BME280;5577;42.706;23.160;2023-02-26T11:35:06;92750.00;;;16.23;42.35
11049;BME280;5577;42.706;23.160;2023-02-26T11:38:01;92769.53;;;16.39;42.09
11049;BME280;5577;42.706;23.160;2023-02-26T11:40:48;92775.97;;;16.22;42.52
11049;BME280;5577;42.706;23.160;2023-02-26T11:43:38;92772.28;;;16.16;43.19
11049;BME280;5577;42.706;23.160;2023-02-26T11:46:25;92744.41;;;15.82;43.72
11049;BME280;5577;42.706;23.160;2023-02-26T11:49:13;92732.34;;;15.74;44.30
11049;BME280;5577;42.706;23.160;2023-02-26T11:55:02;92717.19;;;15.51;45.78
11049;BME280;5577;42.706;23.160;2023-02-26T11:57:53;92692.28;;;15.35;45.71
11049;BME280;5577;42.706;23.160;2023-02-26T12:00:38;92734.31;;;15.50;46.00
11049;BME280;5577;42.706;23.160;2023-02-26T12:03:26;92761.34;;;15.52;46.24
11049;BME280;5577;42.706;23.160;2023-02-26T12:06:16;92722.47;;;15.32;46.03
11049;BME280;5577;42.706;23.160;2023-02-26T12:09:01;92777.81;;;15.47;46.29
11049;BME280;5577;42.706;23.160;2023-02-26T12:26:51;92805.50;;;15.76;45.21
11049;BME280;5577;42.706;23.160;2023-02-26T12:32:59;92795.69;;;15.70;42.75
11049;BME280;5577;42.706;23.160;2023-02-26T12:39:08;92785.09;;;16.05;41.22
11049;BME280;5577;42.706;23.160;2023-02-26T12:45:27;92819.44;;;16.23;40.31
11049;BME280;5577;42.706;23.160;2023-02-26T12:51:35;92807.81;;;17.04;39.32
11049;BME280;5577;42.706;23.160;2023-02-26T13:00:50;92822.00;;;16.49;39.46
11049;BME280;5577;42.706;23.160;2023-02-26T13:13:47;92822.81;;;16.46;40.55
11049;BME280;5577;42.706;23.160;2023-02-26T13:16:55;92817.53;;;16.23;41.76
11049;BME280;5577;42.706;23.160;2023-02-26T13:19:46;92851.41;;;16.65;41.30
11049;BME280;5577;42.706;23.160;2023-02-26T13:22:37;92837.72;;;16.44;41.96
11049;BME280;5577;42.706;23.160;2023-02-26T13:25:25;92845.34;;;16.45;42.13
11049;BME280;5577;42.706;23.160;2023-02-26T13:31:24;92838.09;;;16.97;40.61
11049;BME280;5577;42.706;23.160;2023-02-26T13:34:30;92855.56;;;17.02;40.15
11049;BME280;5577;42.706;23.160;2023-02-26T13:37:41;92858.22;;;16.86;39.63
11049;BME280;5577;42.706;23.160;2023-02-26T13:52:29;92831.41;;;16.34;41.11
11049;BME280;5577;42.706;23.160;2023-02-26T14:07:13;92783.75;;;16.33;40.76
11049;BME280;5577;42.706;23.160;2023-02-26T14:10:02;92815.09;;;16.13;41.41
11049;BME280;5577;42.706;23.160;2023-02-26T14:13:07;92810.00;;;15.79;42.75
11049;BME280;5577;42.706;23.160;2023-02-26T14:16:00;92817.72;;;15.74;42.69
11049;BME280;5577;42.706;23.160;2023-02-26T14:24:21;92828.34;;;15.31;44.18
11049;BME280;5577;42.706;23.160;2023-02-26T14:32:48;92858.69;;;15.14;45.45
11049;BME280;5577;42.706;23.160;2023-02-26T14:35:40;92851.09;;;15.13;45.80
11049;BME280;5577;42.706;23.160;2023-02-26T14:38:29;92842.53;;;15.02;46.08
11049;BME280;5577;42.706;23.160;2023-02-26T14:41:30;92857.50;;;14.92;46.63
11049;BME280;5577;42.706;23.160;2023-02-26T14:44:25;92867.16;;;14.83;47.17
11049;BME280;5577;42.706;23.160;2023-02-26T14:47:11;92838.66;;;14.80;47.30
11049;BME280;5577;42.706;23.160;2023-02-26T14:49:55;92859.28;;;14.76;47.28
11049;BME280;5577;42.706;23.160;2023-02-26T14:56:04;92887.91;;;14.68;47.53
11049;BME280;5577;42.706;23.160;2023-02-26T14:59:23;92884.16;;;14.66;48.28
11049;BME280;5577;42.706;23.160;2023-02-26T15:05:42;92847.13;;;14.45;49.87
11049;BME280;5577;42.706;23.160;2023-02-26T15:12:13;92886.09;;;14.31;51.15
11049;BME280;5577;42.706;23.160;2023-02-26T15:24:12;92871.56;;;14.02;53.51
11049;BME280;5577;42.706;23.160;2023-02-26T15:27:01;92874.97;;;14.03;53.67
11049;BME280;5577;42.706;23.160;2023-02-26T15:29:47;92887.56;;;13.99;54.24
11049;BME280;5577;42.706;23.160;2023-02-26T15:32:36;92891.75;;;14.00;54.52
11049;BME280;5577;42.706;23.160;2023-02-26T15:35:21;92899.06;;;13.89;55.75
11049;BME280;5577;42.706;23.160;2023-02-26T15:38:05;92891.13;;;13.85;55.85
11049;BME280;5577;42.706;23.160;2023-02-26T15:40:52;92883.53;;;13.84;56.09
11049;BME280;5577;42.706;23.160;2023-02-26T15:43:38;92891.97;;;13.79;56.44
11049;BME280;5577;42.706;23.160;2023-02-26T15:46:29;92882.84;;;13.76;57.09
11049;BME280;5577;42.706;23.160;2023-02-26T15:49:36;92875.09;;;13.52;57.66
11049;BME280;5577;42.706;23.160;2023-02-26T15:52:22;92878.75;;;13.68;58.07
11049;BME280;5577;42.706;23.160;2023-02-26T15:55:07;92911.06;;;13.67;58.09
11049;BME280;5577;42.706;23.160;2023-02-26T15:57:52;92906.13;;;13.65;58.61
11049;BME280;5577;42.706;23.160;2023-02-26T16:00:37;92920.97;;;13.63;58.88
11049;BME280;5577;42.706;23.160;2023-02-26T16:03:26;92923.69;;;13.56;59.55
11049;BME280;5577;42.706;23.160;2023-02-26T16:06:15;92928.63;;;13.57;59.67
11049;BME280;5577;42.706;23.160;2023-02-26T16:09:00;92935.88;;;13.53;60.03
11049;BME280;5577;42.706;23.160;2023-02-26T16:11:45;92910.19;;;13.36;60.69
11049;BME280;5577;42.706;23.160;2023-02-26T16:14:33;92919.38;;;13.25;61.61
11049;BME280;5577;42.706;23.160;2023-02-26T16:17:29;92919.53;;;13.51;60.34
11049;BME280;5577;42.706;23.160;2023-02-26T16:20:23;92926.06;;;13.43;60.76
11049;BME280;5577;42.706;23.160;2023-02-26T16:23:20;92904.19;;;13.22;60.94
11049;BME280;5577;42.706;23.160;2023-02-26T16:26:06;92942.78;;;13.44;60.94
11049;BME280;5577;42.706;23.160;2023-02-26T16:28:57;92951.91;;;13.39;61.47
11049;BME280;5577;42.706;23.160;2023-02-26T16:31:46;92953.41;;;13.44;61.39
11049;BME280;5577;42.706;23.160;2023-02-26T16:37:33;92983.00;;;13.46;62.09
11049;BME280;5577;42.706;23.160;2023-02-26T16:40:35;92977.72;;;13.42;62.00
11049;BME280;5577;42.706;23.160;2023-02-26T16:46:09;92973.13;;;13.46;62.46
11049;BME280;5577;42.706;23.160;2023-02-26T16:49:02;92933.78;;;13.27;62.44
11049;BME280;5577;42.706;23.160;2023-02-26T16:51:47;92984.94;;;13.42;62.89
11049;BME280;5577;42.706;23.160;2023-02-26T16:54:40;92980.78;;;13.37;63.65
11049;BME280;5577;42.706;23.160;2023-02-26T16:57:35;92991.06;;;13.35;63.84
11049;BME280;5577;42.706;23.160;2023-02-26T17:00:22;92944.56;;;13.03;64.27
11049;BME280;5577;42.706;23.160;2023-02-26T17:03:20;92987.63;;;13.35;64.60
11049;BME280;5577;42.706;23.160;2023-02-26T17:06:08;92980.41;;;13.39;64.61
11049;BME280;5577;42.706;23.160;2023-02-26T17:08:59;93021.03;;;13.36;64.97
11049;BME280;5577;42.706;23.160;2023-02-26T17:11:43;93009.25;;;13.40;64.53
11049;BME280;5577;42.706;23.160;2023-02-26T17:14:35;92998.63;;;13.40;64.71
11049;BME280;5577;42.706;23.160;2023-02-26T17:17:20;93016.84;;;13.38;65.39
11049;BME280;5577;42.706;23.160;2023-02-26T17:20:04;93022.16;;;13.38;64.84
11049;BME280;5577;42.706;23.160;2023-02-26T17:22:49;93011.47;;;13.45;64.31
11049;BME280;5577;42.706;23.160;2023-02-26T17:25:37;93016.06;;;13.45;65.16
11049;BME280;5577;42.706;23.160;2023-02-26T17:28:28;93035.06;;;13.43;64.92
11049;BME280;5577;42.706;23.160;2023-02-26T17:31:13;93013.84;;;13.36;65.46
11049;BME280;5577;42.706;23.160;2023-02-26T17:33:58;93027.09;;;13.40;66.13
11049;BME280;5577;42.706;23.160;2023-02-26T17:36:41;93012.34;;;13.35;66.51
11049;BME280;5577;42.706;23.160;2023-02-26T17:39:25;93023.69;;;13.36;67.34
11049;BME280;5577;42.706;23.160;2023-02-26T17:42:18;93027.50;;;13.31;68.62
11049;BME280;5577;42.706;23.160;2023-02-26T17:45:04;93029.78;;;13.33;69.09
11049;BME280;5577;42.706;23.160;2023-02-26T17:47:48;93041.59;;;13.28;69.81
11049;BME280;5577;42.706;23.160;2023-02-26T17:50:41;93038.94;;;13.28;69.91
11049;BME280;5577;42.706;23.160;2023-02-26T17:53:26;93036.69;;;13.23;70.54
11049;BME280;5577;42.706;23.160;2023-02-26T17:56:19;93043.88;;;13.26;70.34
11049;BME280;5577;42.706;23.160;2023-02-26T17:59:05;93033.28;;;13.23;70.85
11049;BME280;5577;42.706;23.160;2023-02-26T18:01:49;93041.25;;;13.19;71.64
11049;BME280;5577;42.706;23.160;2023-02-26T18:04:33;93024.59;;;13.15;72.53
11049;BME280;5577;42.706;23.160;2023-02-26T18:07:18;93017.00;;;13.14;72.92
11049;BME280;5577;42.706;23.160;2023-02-26T18:10:03;93010.59;;;13.04;74.61
11049;BME280;5577;42.706;23.160;2023-02-26T18:12:47;92975.81;;;12.67;76.43
11049;BME280;5577;42.706;23.160;2023-02-26T18:15:31;93021.66;;;12.85;77.69
11049;BME280;5577;42.706;23.160;2023-02-26T18:18:16;93033.47;;;12.74;79.02
11049;BME280;5577;42.706;23.160;2023-02-26T18:21:01;93037.22;;;12.80;79.18
11049;BME280;5577;42.706;23.160;2023-02-26T18:23:45;93039.88;;;12.83;79.41
11049;BME280;5577;42.706;23.160;2023-02-26T18:26:31;93055.84;;;12.76;80.82
11049;BME280;5577;42.706;23.160;2023-02-26T18:29:15;93046.75;;;12.74;82.15
11049;BME280;5577;42.706;23.160;2023-02-26T18:31:59;93048.28;;;12.68;83.70
11049;BME280;5577;42.706;23.160;2023-02-26T18:34:46;93057.78;;;12.65;84.80
11049;BME280;5577;42.706;23.160;2023-02-26T18:37:32;93051.69;;;12.68;86.10
11049;BME280;5577;42.706;23.160;2023-02-26T18:40:20;93080.13;;;12.75;86.58
11049;BME280;5577;42.706;23.160;2023-02-26T18:43:05;93068.34;;;12.76;86.38
11049;BME280;5577;42.706;23.160;2023-02-26T18:45:50;93052.81;;;12.67;86.53
11049;BME280;5577;42.706;23.160;2023-02-26T18:48:35;93059.25;;;12.73;86.90
11049;BME280;5577;42.706;23.160;2023-02-26T18:51:19;93074.03;;;12.78;86.66
11049;BME280;5577;42.706;23.160;2023-02-26T18:54:04;93070.25;;;12.79;86.87
11049;BME280;5577;42.706;23.160;2023-02-26T18:56:48;93077.84;;;12.73;87.69
11049;BME280;5577;42.706;23.160;2023-02-26T18:59:33;93102.13;;;12.75;88.13
11049;BME280;5577;42.706;23.160;2023-02-26T19:02:17;93074.78;;;12.82;87.45
11049;BME280;5577;42.706;23.160;2023-02-26T19:05:02;93073.31;;;12.70;89.22
11049;BME280;5577;42.706;23.160;2023-02-26T19:07:46;93077.47;;;12.64;90.69
11049;BME280;5577;42.706;23.160;2023-02-26T19:10:32;93082.44;;;12.59;92.48
11049;BME280;5577;42.706;23.160;2023-02-26T19:13:17;93093.44;;;12.57;93.12
11049;BME280;5577;42.706;23.160;2023-02-26T19:16:01;93098.75;;;12.54;94.28
11049;BME280;5577;42.706;23.160;2023-02-26T19:18:46;93104.41;;;12.56;94.93
11049;BME280;5577;42.706;23.160;2023-02-26T19:21:31;93111.63;;;12.52;96.69
11049;BME280;5577;42.706;23.160;2023-02-26T19:24:18;93116.22;;;12.44;98.11
11049;BME280;5577;42.706;23.160;2023-02-26T19:27:03;93103.34;;;12.36;98.73
11049;BME280;5577;42.706;23.160;2023-02-26T19:29:47;93119.25;;;12.36;99.96
11049;BME280;5577;42.706;23.160;2023-02-26T19:32:32;93097.28;;;12.18;100.00
11049;BME280;5577;42.706;23.160;2023-02-26T19:35:16;93108.28;;;12.23;100.00
11049;BME280;5577;42.706;23.160;2023-02-26T19:38:01;93116.59;;;12.25;100.00
11049;BME280;5577;42.706;23.160;2023-02-26T19:40:45;93117.72;;;12.42;100.00
11049;BME280;5577;42.706;23.160;2023-02-26T19:43:30;93132.88;;;12.52;100.00
11049;BME280;5577;42.706;23.160;2023-02-26T19:46:14;93131.38;;;12.47;100.00
11049;BME280;5577;42.706;23.160;2023-02-26T19:48:58;93135.16;;;12.46;100.00
11049;BME280;5577;42.706;23.160;2023-02-26T19:51:43;93146.91;;;12.49;100.00
11049;BME280;5577;42.706;23.160;2023-02-26T19:54:28;93124.16;;;12.34;100.00
11049;BME280;5577;42.706;23.160;2023-02-26T19:57:13;93146.16;;;12.41;100.00
11049;BME280;5577;42.706;23.160;2023-02-26T19:59:57;93148.44;;;12.39;99.76
11049;BME280;5577;42.706;23.160;2023-02-26T20:02:42;93161.72;;;12.50;97.56
11049;BME280;5577;42.706;23.160;2023-02-26T20:05:26;93177.63;;;12.50;97.17
11049;BME280;5577;42.706;23.160;2023-02-26T20:08:11;93169.66;;;12.46;97.65
11049;BME280;5577;42.706;23.160;2023-02-26T20:10:56;93179.91;;;12.44;99.01
11049;BME280;5577;42.706;23.160;2023-02-26T20:13:41;93172.34;;;12.43;100.00
11049;BME280;5577;42.706;23.160;2023-02-26T20:16:25;93192.81;;;12.46;100.00
11049;BME280;5577;42.706;23.160;2023-02-26T20:19:11;93185.59;;;12.43;100.00
11049;BME280;5577;42.706;23.160;2023-02-26T20:21:56;93200.75;;;12.42;100.00
11049;BME280;5577;42.706;23.160;2023-02-26T20:24:40;93199.59;;;12.43;100.00
11049;BME280;5577;42.706;23.160;2023-02-26T20:27:24;93203.81;;;12.44;100.00
11049;BME280;5577;42.706;23.160;2023-02-26T20:30:09;93210.59;;;12.42;100.00
11049;BME280;5577;42.706;23.160;2023-02-26T20:32:54;93204.16;;;12.39;100.00
11049;BME280;5577;42.706;23.160;2023-02-26T20:35:41;93189.38;;;12.49;100.00
11049;BME280;5577;42.706;23.160;2023-02-26T20:38:28;93173.47;;;12.24;100.00
11049;BME280;5577;42.706;23.160;2023-02-26T20:41:13;93209.13;;;12.44;100.00
11049;BME280;5577;42.706;23.160;2023-02-26T20:43:57;93202.66;;;12.31;100.00
11049;BME280;5577;42.706;23.160;2023-02-26T20:46:42;93215.91;;;12.35;100.00
11049;BME280;5577;42.706;23.160;2023-02-26T20:49:26;93217.44;;;12.29;100.00
11049;BME280;5577;42.706;23.160;2023-02-26T20:52:10;93220.47;;;12.20;100.00
11049;BME280;5577;42.706;23.160;2023-02-26T20:54:54;93218.19;;;12.19;100.00
11049;BME280;5577;42.706;23.160;2023-02-26T20:57:38;93213.63;;;12.12;100.00
11049;BME280;5577;42.706;23.160;2023-02-26T21:00:22;93182.16;;;11.97;100.00
11049;BME280;5577;42.706;23.160;2023-02-26T21:03:07;93224.63;;;12.11;100.00
11049;BME280;5577;42.706;23.160;2023-02-26T21:05:51;93225.72;;;12.03;100.00
11049;BME280;5577;42.706;23.160;2023-02-26T21:08:35;93229.91;;;12.07;100.00
11049;BME280;5577;42.706;23.160;2023-02-26T21:11:19;93221.97;;;12.18;100.00
11049;BME280;5577;42.706;23.160;2023-02-26T21:14:06;93220.47;;;12.20;100.00
11049;BME280;5577;42.706;23.160;2023-02-26T21:16:50;93202.25;;;12.05;100.00
11049;BME280;5577;42.706;23.160;2023-02-26T21:19:36;93223.88;;;12.24;100.00
11049;BME280;5577;42.706;23.160;2023-02-26T21:22:21;93216.28;;;12.19;100.00
11049;BME280;5577;42.706;23.160;2023-02-26T21:25:06;93231.81;;;12.21;100.00
11049;BME280;5577;42.706;23.160;2023-02-26T21:27:50;93239.41;;;12.19;100.00
11049;BME280;5577;42.706;23.160;2023-02-26T21:30:34;93238.28;;;12.23;100.00
11049;BME280;5577;42.706;23.160;2023-02-26T21:33:18;93239.44;;;12.33;100.00
11049;BME280;5577;42.706;23.160;2023-02-26T21:36:02;93231.47;;;12.36;100.00
11049;BME280;5577;42.706;23.160;2023-02-26T21:38:47;93236.03;;;12.36;100.00
11049;BME280;5577;42.706;23.160;2023-02-26T21:41:31;93233.72;;;12.27;100.00
11049;BME280;5577;42.706;23.160;2023-02-26T21:44:14;93241.69;;;12.24;100.00
11049;BME280;5577;42.706;23.160;2023-02-26T21:46:59;93251.91;;;12.25;100.00
11049;BME280;5577;42.706;23.160;2023-02-26T21:49:44;93252.69;;;12.29;100.00
11049;BME280;5577;42.706;23.160;2023-02-26T21:52:28;93255.72;;;12.35;100.00
11049;BME280;5577;42.706;23.160;2023-02-26T21:55:12;93256.13;;;12.33;100.00
11049;BME280;5577;42.706;23.160;2023-02-26T21:57:56;93240.19;;;12.30;100.00
11049;BME280;5577;42.706;23.160;2023-02-26T22:00:41;93244.34;;;12.38;100.00
11049;BME280;5577;42.706;23.160;2023-02-26T22:03:24;93256.13;;;12.44;100.00
11049;BME280;5577;42.706;23.160;2023-02-26T22:06:09;93246.63;;;12.46;100.00
11049;BME280;5577;42.706;23.160;2023-02-26T22:08:53;93241.31;;;12.46;100.00
11049;BME280;5577;42.706;23.160;2023-02-26T22:11:37;93258.00;;;12.50;100.00
11049;BME280;5577;42.706;23.160;2023-02-26T22:14:21;93261.84;;;12.53;100.00
11049;BME280;5577;42.706;23.160;2023-02-26T22:17:05;93267.88;;;12.50;100.00
11049;BME280;5577;42.706;23.160;2023-02-26T22:19:50;93257.63;;;12.52;100.00
11049;BME280;5577;42.706;23.160;2023-02-26T22:22:37;93266.00;;;12.54;100.00
11049;BME280;5577;42.706;23.160;2023-02-26T22:25:22;93257.66;;;12.55;100.00
11049;BME280;5577;42.706;23.160;2023-02-26T22:28:06;93259.53;;;12.55;100.00
11049;BME280;5577;42.706;23.160;2023-02-26T22:30:50;93264.84;;;12.48;100.00
11049;BME280;5577;42.706;23.160;2023-02-26T22:33:34;93259.53;;;12.37;100.00
11049;BME280;5577;42.706;23.160;2023-02-26T22:36:19;93273.19;;;12.43;100.00
11049;BME280;5577;42.706;23.160;2023-02-26T22:39:03;93275.06;;;12.42;100.00
11049;BME280;5577;42.706;23.160;2023-02-26T22:41:48;93268.63;;;12.33;100.00
11049;BME280;5577;42.706;23.160;2023-02-26T22:44:32;93279.59;;;12.28;100.00
11049;BME280;5577;42.706;23.160;2023-02-26T22:47:17;93275.81;;;12.32;100.00